sensor_id;sensor_type;location;lat;lon;timestamp;temperature;humidity
23869;DHT22;12115;47.128;15.422;2023-01-28T00:00:52;0.00;99.90
23869;DHT22;12115;47.128;15.422;2023-01-28T00:03:19;0.00;99.90
23869;DHT22;12115;47.128;15.422;2023-01-28T00:05:46;0.10;99.90
23869;DHT22;12115;47.128;15.422;2023-01-28T00:08:13;0.10;99.90
23869;DHT22;12115;47.128;15.422;2023-01-28T00:10:40;0.10;99.90
23869;DHT22;12115;47.128;15.422;2023-01-28T00:13:10;0.10;99.90
23869;DHT22;12115;47.128;15.422;2023-01-28T00:15:37;0.10;99.90
23869;DHT22;12115;47.128;15.422;2023-01-28T00:18:04;0.20;99.90
23869;DHT22;12115;47.128;15.422;2023-01-28T00:20:31;0.10;99.90
23869;DHT22;12115;47.128;15.422;2023-01-28T00:22:58;0.20;99.90
23869;DHT22;12115;47.128;15.422;2023-01-28T00:25:25;0.20;99.90
23869;DHT22;12115;47.128;15.422;2023-01-28T00:27:52;0.20;99.90
23869;DHT22;12115;47.128;15.422;2023-01-28T00:30:19;0.20;99.90
23869;DHT22;12115;47.128;15.422;2023-01-28T00:32:46;0.10;99.90
23869;DHT22;12115;47.128;15.422;2023-01-28T00:35:13;0.10;99.90
23869;DHT22;12115;47.128;15.422;2023-01-28T00:37:40;0.10;99.90
23869;DHT22;12115;47.128;15.422;2023-01-28T00:40:07;0.10;99.90
23869;DHT22;12115;47.128;15.422;2023-01-28T00:42:35;0.20;99.90
23869;DHT22;12115;47.128;15.422;2023-01-28T00:45:03;0.10;99.90
23869;DHT22;12115;47.128;15.422;2023-01-28T00:47:30;0.10;99.90
23869;DHT22;12115;47.128;15.422;2023-01-28T00:49:57;0.10;99.90
23869;DHT22;12115;47.128;15.422;2023-01-28T00:52:24;0.10;99.90
23869;DHT22;12115;47.128;15.422;2023-01-28T00:54:53;0.20;99.90
23869;DHT22;12115;47.128;15.422;2023-01-28T00:57:20;0.10;99.90
23869;DHT22;12115;47.128;15.422;2023-01-28T00:59:47;0.10;99.90
23869;DHT22;12115;47.128;15.422;2023-01-28T01:02:14;0.10;99.90
23869;DHT22;12115;47.128;15.422;2023-01-28T01:04:44;0.10;99.90
23869;DHT22;12115;47.128;15.422;2023-01-28T01:07:21;0.00;99.90
23869;DHT22;12115;47.128;15.422;2023-01-28T01:09:48;0.10;99.90
23869;DHT22;12115;47.128;15.422;2023-01-28T01:12:15;0.10;99.90
23869;DHT22;12115;47.128;15.422;2023-01-28T01:14:43;0.00;99.90
23869;DHT22;12115;47.128;15.422;2023-01-28T01:17:10;0.00;99.90
23869;DHT22;12115;47.128;15.422;2023-01-28T01:19:37;0.00;99.90
23869;DHT22;12115;47.128;15.422;2023-01-28T01:22:04;0.00;99.90
23869;DHT22;12115;47.128;15.422;2023-01-28T01:24:30;0.00;99.90
23869;DHT22;12115;47.128;15.422;2023-01-28T01:26:59;0.00;99.90
23869;DHT22;12115;47.128;15.422;2023-01-28T01:29:27;0.00;99.90
23869;DHT22;12115;47.128;15.422;2023-01-28T01:31:54;-0.10;99.90
23869;DHT22;12115;47.128;15.422;2023-01-28T01:34:22;-0.10;99.90
23869;DHT22;12115;47.128;15.422;2023-01-28T01:36:49;-0.10;99.90
23869;DHT22;12115;47.128;15.422;2023-01-28T01:39:16;-0.10;99.90
23869;DHT22;12115;47.128;15.422;2023-01-28T01:41:44;-0.10;99.90
23869;DHT22;12115;47.128;15.422;2023-01-28T01:46:57;0.00;99.90
23869;DHT22;12115;47.128;15.422;2023-01-28T01:49:24;0.00;99.90
23869;DHT22;12115;47.128;15.422;2023-01-28T01:51:56;0.00;99.90
23869;DHT22;12115;47.128;15.422;2023-01-28T01:54:26;-0.10;99.90
23869;DHT22;12115;47.128;15.422;2023-01-28T01:56:55;0.00;99.90
23869;DHT22;12115;47.128;15.422;2023-01-28T01:59:25;0.00;99.90
23869;DHT22;12115;47.128;15.422;2023-01-28T02:01:53;0.00;99.90
23869;DHT22;12115;47.128;15.422;2023-01-28T02:04:30;0.00;99.90
23869;DHT22;12115;47.128;15.422;2023-01-28T02:06:58;0.00;99.90
23869;DHT22;12115;47.128;15.422;2023-01-28T02:09:27;0.00;99.90
23869;DHT22;12115;47.128;15.422;2023-01-28T02:11:55;0.10;99.90
23869;DHT22;12115;47.128;15.422;2023-01-28T02:14:25;0.00;99.90
23869;DHT22;12115;47.128;15.422;2023-01-28T02:16:58;0.10;99.90
23869;DHT22;12115;47.128;15.422;2023-01-28T02:19:26;0.10;99.90
23869;DHT22;12115;47.128;15.422;2023-01-28T02:32:20;0.10;99.90
23869;DHT22;12115;47.128;15.422;2023-01-28T02:34:54;0.10;99.90
23869;DHT22;12115;47.128;15.422;2023-01-28T02:40:12;0.00;99.90
23869;DHT22;12115;47.128;15.422;2023-01-28T02:42:39;0.10;99.90
23869;DHT22;12115;47.128;15.422;2023-01-28T02:45:17;0.10;99.90
23869;DHT22;12115;47.128;15.422;2023-01-28T02:47:46;0.10;99.90
23869;DHT22;12115;47.128;15.422;2023-01-28T02:50:42;0.00;99.90
23869;DHT22;12115;47.128;15.422;2023-01-28T02:53:28;0.00;99.90
23869;DHT22;12115;47.128;15.422;2023-01-28T02:56:17;0.00;99.90
23869;DHT22;12115;47.128;15.422;2023-01-28T02:58:47;0.00;99.90
23869;DHT22;12115;47.128;15.422;2023-01-28T03:06:21;-0.10;99.90
23869;DHT22;12115;47.128;15.422;2023-01-28T03:08:51;-0.10;99.90
23869;DHT22;12115;47.128;15.422;2023-01-28T03:11:42;-0.10;99.90
23869;DHT22;12115;47.128;15.422;2023-01-28T03:14:29;-0.10;99.90
23869;DHT22;12115;47.128;15.422;2023-01-28T03:17:16;-0.30;99.90
23869;DHT22;12115;47.128;15.422;2023-01-28T03:20:03;-0.30;99.90
23869;DHT22;12115;47.128;15.422;2023-01-28T03:22:50;-0.30;99.90
23869;DHT22;12115;47.128;15.422;2023-01-28T03:25:37;-0.20;99.90
23869;DHT22;12115;47.128;15.422;2023-01-28T03:28:25;-0.20;99.90
23869;DHT22;12115;47.128;15.422;2023-01-28T03:31:12;-0.20;99.90
23869;DHT22;12115;47.128;15.422;2023-01-28T03:33:59;-0.20;99.90
23869;DHT22;12115;47.128;15.422;2023-01-28T03:36:46;-0.20;99.90
23869;DHT22;12115;47.128;15.422;2023-01-28T03:40:00;-0.10;99.90
23869;DHT22;12115;47.128;15.422;2023-01-28T03:42:29;-0.10;99.90
23869;DHT22;12115;47.128;15.422;2023-01-28T03:45:03;-0.10;99.90
23869;DHT22;12115;47.128;15.422;2023-01-28T03:47:31;-0.20;99.90
23869;DHT22;12115;47.128;15.422;2023-01-28T03:50:00;-0.10;99.90
23869;DHT22;12115;47.128;15.422;2023-01-28T03:52:31;-0.10;99.90
23869;DHT22;12115;47.128;15.422;2023-01-28T03:55:16;-0.20;99.90
23869;DHT22;12115;47.128;15.422;2023-01-28T03:57:43;-0.20;99.90
23869;DHT22;12115;47.128;15.422;2023-01-28T04:00:11;-0.20;99.90
23869;DHT22;12115;47.128;15.422;2023-01-28T04:02:41;-0.30;99.90
23869;DHT22;12115;47.128;15.422;2023-01-28T04:05:11;-0.20;99.90
23869;DHT22;12115;47.128;15.422;2023-01-28T04:07:46;-0.20;99.90
23869;DHT22;12115;47.128;15.422;2023-01-28T04:10:19;-0.10;99.90
23869;DHT22;12115;47.128;15.422;2023-01-28T04:13:12;-0.10;99.90
23869;DHT22;12115;47.128;15.422;2023-01-28T04:15:41;-0.20;99.90
23869;DHT22;12115;47.128;15.422;2023-01-28T04:18:09;-0.20;99.90
23869;DHT22;12115;47.128;15.422;2023-01-28T04:20:36;-0.20;99.90
23869;DHT22;12115;47.128;15.422;2023-01-28T04:23:04;-0.20;99.90
23869;DHT22;12115;47.128;15.422;2023-01-28T04:25:31;-0.20;99.90
23869;DHT22;12115;47.128;15.422;2023-01-28T04:27:59;-0.20;99.90
23869;DHT22;12115;47.128;15.422;2023-01-28T04:30:29;-0.30;99.90
23869;DHT22;12115;47.128;15.422;2023-01-28T04:33:08;-0.30;99.90
23869;DHT22;12115;47.128;15.422;2023-01-28T04:36:01;-0.30;99.90
23869;DHT22;12115;47.128;15.422;2023-01-28T04:38:40;-0.20;99.90
23869;DHT22;12115;47.128;15.422;2023-01-28T04:41:26;-0.20;99.90
23869;DHT22;12115;47.128;15.422;2023-01-28T04:43:56;-0.20;99.90
23869;DHT22;12115;47.128;15.422;2023-01-28T04:46:49;-0.20;99.90
23869;DHT22;12115;47.128;15.422;2023-01-28T04:49:28;-0.20;99.90
23869;DHT22;12115;47.128;15.422;2023-01-28T04:52:12;-0.20;99.90
23869;DHT22;12115;47.128;15.422;2023-01-28T04:54:59;-0.20;99.90
23869;DHT22;12115;47.128;15.422;2023-01-28T04:57:27;-0.20;99.90
23869;DHT22;12115;47.128;15.422;2023-01-28T04:59:54;-0.20;99.90
23869;DHT22;12115;47.128;15.422;2023-01-28T05:02:21;-0.20;99.90
23869;DHT22;12115;47.128;15.422;2023-01-28T05:04:48;-0.20;99.90
23869;DHT22;12115;47.128;15.422;2023-01-28T05:07:30;-0.30;99.90
23869;DHT22;12115;47.128;15.422;2023-01-28T05:09:57;-0.20;99.90
23869;DHT22;12115;47.128;15.422;2023-01-28T05:12:24;-0.20;99.90
23869;DHT22;12115;47.128;15.422;2023-01-28T05:14:52;-0.20;99.90
23869;DHT22;12115;47.128;15.422;2023-01-28T05:17:20;-0.20;99.90
23869;DHT22;12115;47.128;15.422;2023-01-28T05:19:47;-0.20;99.90
23869;DHT22;12115;47.128;15.422;2023-01-28T05:22:19;-0.20;99.90
23869;DHT22;12115;47.128;15.422;2023-01-28T05:25:04;-0.20;99.90
23869;DHT22;12115;47.128;15.422;2023-01-28T05:27:31;-0.30;99.90
23869;DHT22;12115;47.128;15.422;2023-01-28T05:29:58;-0.30;99.90
23869;DHT22;12115;47.128;15.422;2023-01-28T05:32:25;-0.30;99.90
23869;DHT22;12115;47.128;15.422;2023-01-28T05:34:52;-0.30;99.90
23869;DHT22;12115;47.128;15.422;2023-01-28T05:37:20;-0.20;99.90
23869;DHT22;12115;47.128;15.422;2023-01-28T05:39:49;-0.30;99.90
23869;DHT22;12115;47.128;15.422;2023-01-28T05:42:16;-0.30;99.90
23869;DHT22;12115;47.128;15.422;2023-01-28T05:44:48;-0.30;99.90
23869;DHT22;12115;47.128;15.422;2023-01-28T05:47:21;-0.30;99.90
23869;DHT22;12115;47.128;15.422;2023-01-28T05:49:58;-0.30;99.90
23869;DHT22;12115;47.128;15.422;2023-01-28T05:52:44;-0.30;99.90
23869;DHT22;12115;47.128;15.422;2023-01-28T05:55:20;-0.30;99.90
23869;DHT22;12115;47.128;15.422;2023-01-28T05:57:47;-0.40;99.90
23869;DHT22;12115;47.128;15.422;2023-01-28T06:00:16;-0.40;99.90
23869;DHT22;12115;47.128;15.422;2023-01-28T06:02:44;-0.40;99.90
23869;DHT22;12115;47.128;15.422;2023-01-28T06:05:13;-0.30;99.90
23869;DHT22;12115;47.128;15.422;2023-01-28T06:07:43;-0.30;99.90
23869;DHT22;12115;47.128;15.422;2023-01-28T06:10:10;-0.30;99.90
23869;DHT22;12115;47.128;15.422;2023-01-28T06:12:37;-0.30;99.90
23869;DHT22;12115;47.128;15.422;2023-01-28T06:15:36;-0.20;99.90
23869;DHT22;12115;47.128;15.422;2023-01-28T06:18:13;-0.20;99.90
23869;DHT22;12115;47.128;15.422;2023-01-28T06:20:40;-0.20;99.90
23869;DHT22;12115;47.128;15.422;2023-01-28T06:23:07;-0.20;99.90
23869;DHT22;12115;47.128;15.422;2023-01-28T06:25:33;-0.20;99.90
23869;DHT22;12115;47.128;15.422;2023-01-28T06:28:05;-0.30;99.90
23869;DHT22;12115;47.128;15.422;2023-01-28T06:30:33;-0.20;99.90
23869;DHT22;12115;47.128;15.422;2023-01-28T06:33:00;-0.20;99.90
23869;DHT22;12115;47.128;15.422;2023-01-28T06:35:27;-0.20;99.90
23869;DHT22;12115;47.128;15.422;2023-01-28T06:37:54;-0.20;99.90
23869;DHT22;12115;47.128;15.422;2023-01-28T06:40:21;-0.20;99.90
23869;DHT22;12115;47.128;15.422;2023-01-28T06:42:48;-0.20;99.90
23869;DHT22;12115;47.128;15.422;2023-01-28T06:45:15;-0.20;99.90
23869;DHT22;12115;47.128;15.422;2023-01-28T06:47:42;-0.20;99.90
23869;DHT22;12115;47.128;15.422;2023-01-28T06:50:09;-0.20;99.90
23869;DHT22;12115;47.128;15.422;2023-01-28T06:52:36;-0.10;99.90
23869;DHT22;12115;47.128;15.422;2023-01-28T06:55:03;-0.10;99.90
23869;DHT22;12115;47.128;15.422;2023-01-28T06:57:30;-0.10;99.90
23869;DHT22;12115;47.128;15.422;2023-01-28T06:59:56;-0.10;99.90
23869;DHT22;12115;47.128;15.422;2023-01-28T07:02:23;-0.10;99.90
23869;DHT22;12115;47.128;15.422;2023-01-28T07:04:53;0.00;99.90
23869;DHT22;12115;47.128;15.422;2023-01-28T07:07:20;0.00;99.90
23869;DHT22;12115;47.128;15.422;2023-01-28T07:09:47;0.10;99.90
23869;DHT22;12115;47.128;15.422;2023-01-28T07:12:13;0.10;99.90
23869;DHT22;12115;47.128;15.422;2023-01-28T07:14:41;0.10;99.90
23869;DHT22;12115;47.128;15.422;2023-01-28T07:17:08;0.10;99.90
23869;DHT22;12115;47.128;15.422;2023-01-28T07:19:35;0.10;99.90
23869;DHT22;12115;47.128;15.422;2023-01-28T07:22:01;0.10;99.90
23869;DHT22;12115;47.128;15.422;2023-01-28T07:24:29;0.10;99.90
23869;DHT22;12115;47.128;15.422;2023-01-28T07:26:56;0.20;99.90
23869;DHT22;12115;47.128;15.422;2023-01-28T07:29:22;0.20;99.90
23869;DHT22;12115;47.128;15.422;2023-01-28T07:31:49;0.20;99.90
23869;DHT22;12115;47.128;15.422;2023-01-28T07:34:16;0.10;99.90
23869;DHT22;12115;47.128;15.422;2023-01-28T07:36:43;0.10;99.90
23869;DHT22;12115;47.128;15.422;2023-01-28T07:39:10;0.10;99.90
23869;DHT22;12115;47.128;15.422;2023-01-28T07:41:37;0.20;99.90
23869;DHT22;12115;47.128;15.422;2023-01-28T07:44:05;0.20;99.90
23869;DHT22;12115;47.128;15.422;2023-01-28T07:46:32;0.20;99.90
23869;DHT22;12115;47.128;15.422;2023-01-28T07:48:59;0.20;99.90
23869;DHT22;12115;47.128;15.422;2023-01-28T07:51:26;0.20;99.90
23869;DHT22;12115;47.128;15.422;2023-01-28T07:53:53;0.30;99.90
23869;DHT22;12115;47.128;15.422;2023-01-28T07:56:20;0.30;99.90
23869;DHT22;12115;47.128;15.422;2023-01-28T07:58:50;0.30;99.90
23869;DHT22;12115;47.128;15.422;2023-01-28T08:01:17;0.30;99.90
23869;DHT22;12115;47.128;15.422;2023-01-28T08:03:45;0.30;99.90
23869;DHT22;12115;47.128;15.422;2023-01-28T08:06:12;0.30;99.90
23869;DHT22;12115;47.128;15.422;2023-01-28T08:08:38;0.20;99.90
23869;DHT22;12115;47.128;15.422;2023-01-28T08:11:08;0.30;99.90
23869;DHT22;12115;47.128;15.422;2023-01-28T08:13:36;0.30;99.90
23869;DHT22;12115;47.128;15.422;2023-01-28T08:16:03;0.20;99.90
23869;DHT22;12115;47.128;15.422;2023-01-28T08:18:30;0.20;99.90
23869;DHT22;12115;47.128;15.422;2023-01-28T08:20:57;0.20;99.90
23869;DHT22;12115;47.128;15.422;2023-01-28T08:23:25;0.20;99.90
23869;DHT22;12115;47.128;15.422;2023-01-28T08:25:52;0.20;99.90
23869;DHT22;12115;47.128;15.422;2023-01-28T08:28:21;0.30;99.90
23869;DHT22;12115;47.128;15.422;2023-01-28T08:30:48;0.30;99.90
23869;DHT22;12115;47.128;15.422;2023-01-28T08:33:16;0.30;99.90
23869;DHT22;12115;47.128;15.422;2023-01-28T08:35:43;0.30;99.90
23869;DHT22;12115;47.128;15.422;2023-01-28T08:38:13;0.30;99.90
23869;DHT22;12115;47.128;15.422;2023-01-28T08:40:41;0.10;99.90
23869;DHT22;12115;47.128;15.422;2023-01-28T08:43:08;0.20;99.90
23869;DHT22;12115;47.128;15.422;2023-01-28T08:45:35;0.20;99.90
23869;DHT22;12115;47.128;15.422;2023-01-28T08:48:05;0.20;99.90
23869;DHT22;12115;47.128;15.422;2023-01-28T08:50:36;0.10;99.90
23869;DHT22;12115;47.128;15.422;2023-01-28T08:53:05;0.30;99.90
23869;DHT22;12115;47.128;15.422;2023-01-28T08:55:32;0.30;99.90
23869;DHT22;12115;47.128;15.422;2023-01-28T08:58:03;0.40;99.90
23869;DHT22;12115;47.128;15.422;2023-01-28T09:00:30;0.40;99.90
23869;DHT22;12115;47.128;15.422;2023-01-28T09:02:57;0.30;99.90
23869;DHT22;12115;47.128;15.422;2023-01-28T09:05:24;0.30;99.90
23869;DHT22;12115;47.128;15.422;2023-01-28T09:07:51;0.40;99.90
23869;DHT22;12115;47.128;15.422;2023-01-28T09:10:18;0.40;99.90
23869;DHT22;12115;47.128;15.422;2023-01-28T09:12:48;0.50;99.90
23869;DHT22;12115;47.128;15.422;2023-01-28T09:15:15;0.60;99.90
23869;DHT22;12115;47.128;15.422;2023-01-28T09:17:42;0.60;99.90
23869;DHT22;12115;47.128;15.422;2023-01-28T09:20:09;0.70;99.90
23869;DHT22;12115;47.128;15.422;2023-01-28T09:22:38;0.50;99.90
23869;DHT22;12115;47.128;15.422;2023-01-28T09:25:04;0.50;99.90
23869;DHT22;12115;47.128;15.422;2023-01-28T09:27:31;0.60;99.90
23869;DHT22;12115;47.128;15.422;2023-01-28T09:29:58;0.50;99.90
23869;DHT22;12115;47.128;15.422;2023-01-28T09:32:25;0.50;99.90
23869;DHT22;12115;47.128;15.422;2023-01-28T09:34:52;0.50;99.90
23869;DHT22;12115;47.128;15.422;2023-01-28T09:37:19;0.50;99.90
23869;DHT22;12115;47.128;15.422;2023-01-28T09:39:46;0.50;99.90
23869;DHT22;12115;47.128;15.422;2023-01-28T09:47:20;0.50;99.90
23869;DHT22;12115;47.128;15.422;2023-01-28T09:49:48;0.50;99.90
23869;DHT22;12115;47.128;15.422;2023-01-28T09:52:17;0.60;99.90
23869;DHT22;12115;47.128;15.422;2023-01-28T09:54:48;0.70;99.90
23869;DHT22;12115;47.128;15.422;2023-01-28T09:57:22;0.80;99.90
23869;DHT22;12115;47.128;15.422;2023-01-28T09:59:50;0.80;99.90
23869;DHT22;12115;47.128;15.422;2023-01-28T10:07:33;0.80;99.90
23869;DHT22;12115;47.128;15.422;2023-01-28T10:10:09;0.70;99.90
23869;DHT22;12115;47.128;15.422;2023-01-28T10:12:49;0.70;99.90
23869;DHT22;12115;47.128;15.422;2023-01-28T10:15:32;0.80;99.90
23869;DHT22;12115;47.128;15.422;2023-01-28T10:18:03;0.80;99.90
23869;DHT22;12115;47.128;15.422;2023-01-28T10:20:57;0.90;99.90
23869;DHT22;12115;47.128;15.422;2023-01-28T10:23:30;0.80;99.90
23869;DHT22;12115;47.128;15.422;2023-01-28T10:26:00;0.90;99.90
23869;DHT22;12115;47.128;15.422;2023-01-28T10:28:33;1.00;99.90
23869;DHT22;12115;47.128;15.422;2023-01-28T10:31:00;1.00;99.90
23869;DHT22;12115;47.128;15.422;2023-01-28T10:35:54;1.00;99.90
23869;DHT22;12115;47.128;15.422;2023-01-28T10:38:22;0.90;99.90
23869;DHT22;12115;47.128;15.422;2023-01-28T10:40:49;1.00;99.90
23869;DHT22;12115;47.128;15.422;2023-01-28T10:43:18;1.00;99.90
23869;DHT22;12115;47.128;15.422;2023-01-28T10:45:55;1.00;99.90
23869;DHT22;12115;47.128;15.422;2023-01-28T10:48:24;1.00;99.90
23869;DHT22;12115;47.128;15.422;2023-01-28T10:50:52;1.00;99.90
23869;DHT22;12115;47.128;15.422;2023-01-28T10:53:32;1.10;99.90
23869;DHT22;12115;47.128;15.422;2023-01-28T10:55:59;1.00;99.90
23869;DHT22;12115;47.128;15.422;2023-01-28T10:58:26;1.00;99.90
23869;DHT22;12115;47.128;15.422;2023-01-28T11:01:04;0.90;99.90
23869;DHT22;12115;47.128;15.422;2023-01-28T11:03:32;0.90;99.90
23869;DHT22;12115;47.128;15.422;2023-01-28T11:06:01;0.90;99.90
23869;DHT22;12115;47.128;15.422;2023-01-28T11:08:41;0.70;99.90
23869;DHT22;12115;47.128;15.422;2023-01-28T11:11:12;0.70;99.90
23869;DHT22;12115;47.128;15.422;2023-01-28T11:13:48;0.60;99.90
23869;DHT22;12115;47.128;15.422;2023-01-28T11:16:16;0.70;99.90
23869;DHT22;12115;47.128;15.422;2023-01-28T11:18:47;0.80;99.90
23869;DHT22;12115;47.128;15.422;2023-01-28T11:23:48;0.90;99.90
23869;DHT22;12115;47.128;15.422;2023-01-28T11:26:16;0.90;99.90
23869;DHT22;12115;47.128;15.422;2023-01-28T11:28:44;0.80;99.90
23869;DHT22;12115;47.128;15.422;2023-01-28T11:31:13;0.80;99.90
23869;DHT22;12115;47.128;15.422;2023-01-28T11:36:17;0.70;99.90
23869;DHT22;12115;47.128;15.422;2023-01-28T11:38:57;0.70;99.90
23869;DHT22;12115;47.128;15.422;2023-01-28T11:41:35;0.70;99.90
23869;DHT22;12115;47.128;15.422;2023-01-28T11:44:16;0.70;99.90
23869;DHT22;12115;47.128;15.422;2023-01-28T11:51:57;0.80;99.90
23869;DHT22;12115;47.128;15.422;2023-01-28T11:59:41;0.70;99.90
23869;DHT22;12115;47.128;15.422;2023-01-28T12:02:22;0.70;99.90
23869;DHT22;12115;47.128;15.422;2023-01-28T12:04:58;0.50;99.90
23869;DHT22;12115;47.128;15.422;2023-01-28T12:10:03;0.60;99.90
23869;DHT22;12115;47.128;15.422;2023-01-28T12:12:45;0.70;99.90
23869;DHT22;12115;47.128;15.422;2023-01-28T12:28:25;0.80;99.90
23869;DHT22;12115;47.128;15.422;2023-01-28T12:36:18;0.80;99.90
23869;DHT22;12115;47.128;15.422;2023-01-28T12:41:22;0.80;99.90
23869;DHT22;12115;47.128;15.422;2023-01-28T12:46:52;0.80;99.90
23869;DHT22;12115;47.128;15.422;2023-01-28T12:56:42;0.80;99.90
23869;DHT22;12115;47.128;15.422;2023-01-28T12:59:31;0.90;99.90
23869;DHT22;12115;47.128;15.422;2023-01-28T13:07:37;0.90;99.90
23869;DHT22;12115;47.128;15.422;2023-01-28T13:10:03;0.90;99.90
23869;DHT22;12115;47.128;15.422;2023-01-28T13:12:31;0.80;99.90
23869;DHT22;12115;47.128;15.422;2023-01-28T13:14:58;0.80;99.90
23869;DHT22;12115;47.128;15.422;2023-01-28T13:17:30;0.90;99.90
23869;DHT22;12115;47.128;15.422;2023-01-28T13:19:58;1.00;99.90
23869;DHT22;12115;47.128;15.422;2023-01-28T13:22:32;0.90;99.90
23869;DHT22;12115;47.128;15.422;2023-01-28T13:27:53;1.00;99.90
23869;DHT22;12115;47.128;15.422;2023-01-28T13:30:22;1.00;99.90
23869;DHT22;12115;47.128;15.422;2023-01-28T13:32:56;1.10;99.90
23869;DHT22;12115;47.128;15.422;2023-01-28T13:35:27;1.20;99.90
23869;DHT22;12115;47.128;15.422;2023-01-28T13:37:55;1.20;99.90
23869;DHT22;12115;47.128;15.422;2023-01-28T13:40:24;1.20;99.90
23869;DHT22;12115;47.128;15.422;2023-01-28T13:43:05;1.20;99.90
23869;DHT22;12115;47.128;15.422;2023-01-28T13:45:32;1.30;99.90
23869;DHT22;12115;47.128;15.422;2023-01-28T13:50:39;1.40;99.90
23869;DHT22;12115;47.128;15.422;2023-01-28T13:53:24;1.40;99.90
23869;DHT22;12115;47.128;15.422;2023-01-28T13:55:56;1.30;99.90
23869;DHT22;12115;47.128;15.422;2023-01-28T13:58:35;1.30;99.90
23869;DHT22;12115;47.128;15.422;2023-01-28T14:01:13;1.30;99.90
23869;DHT22;12115;47.128;15.422;2023-01-28T14:03:59;1.30;99.90
23869;DHT22;12115;47.128;15.422;2023-01-28T14:16:54;1.30;99.90
23869;DHT22;12115;47.128;15.422;2023-01-28T14:19:25;1.30;99.90
23869;DHT22;12115;47.128;15.422;2023-01-28T14:21:53;1.30;99.90
23869;DHT22;12115;47.128;15.422;2023-01-28T14:24:20;1.20;99.90
23869;DHT22;12115;47.128;15.422;2023-01-28T14:31:53;1.20;99.90
23869;DHT22;12115;47.128;15.422;2023-01-28T14:36:48;1.20;99.90
23869;DHT22;12115;47.128;15.422;2023-01-28T14:39:19;1.20;99.90
23869;DHT22;12115;47.128;15.422;2023-01-28T14:41:47;1.30;99.90
23869;DHT22;12115;47.128;15.422;2023-01-28T14:44:21;1.20;99.90
23869;DHT22;12115;47.128;15.422;2023-01-28T14:47:02;1.20;99.90
23869;DHT22;12115;47.128;15.422;2023-01-28T14:49:39;1.20;99.90
23869;DHT22;12115;47.128;15.422;2023-01-28T14:59:38;1.30;99.90
23869;DHT22;12115;47.128;15.422;2023-01-28T15:02:09;1.30;99.90
23869;DHT22;12115;47.128;15.422;2023-01-28T15:04:38;1.20;99.90
23869;DHT22;12115;47.128;15.422;2023-01-28T15:07:14;1.20;99.90
23869;DHT22;12115;47.128;15.422;2023-01-28T15:09:42;1.30;99.90
23869;DHT22;12115;47.128;15.422;2023-01-28T15:12:08;1.30;99.90
23869;DHT22;12115;47.128;15.422;2023-01-28T15:14:35;1.20;99.90
23869;DHT22;12115;47.128;15.422;2023-01-28T15:17:02;1.20;99.90
23869;DHT22;12115;47.128;15.422;2023-01-28T15:19:33;1.20;99.90
23869;DHT22;12115;47.128;15.422;2023-01-28T15:22:03;1.20;99.90
23869;DHT22;12115;47.128;15.422;2023-01-28T15:24:32;1.20;99.90
23869;DHT22;12115;47.128;15.422;2023-01-28T15:27:00;1.20;99.90
23869;DHT22;12115;47.128;15.422;2023-01-28T15:31:57;1.20;99.90
23869;DHT22;12115;47.128;15.422;2023-01-28T15:34:24;1.20;99.90
23869;DHT22;12115;47.128;15.422;2023-01-28T15:36:56;1.20;99.90
23869;DHT22;12115;47.128;15.422;2023-01-28T15:39:23;1.20;99.90
23869;DHT22;12115;47.128;15.422;2023-01-28T15:41:52;1.20;99.90
23869;DHT22;12115;47.128;15.422;2023-01-28T15:44:33;1.20;99.90
23869;DHT22;12115;47.128;15.422;2023-01-28T15:47:12;1.20;99.90
23869;DHT22;12115;47.128;15.422;2023-01-28T15:49:41;1.20;99.90
23869;DHT22;12115;47.128;15.422;2023-01-28T15:52:09;1.20;99.90
23869;DHT22;12115;47.128;15.422;2023-01-28T15:54:37;1.20;99.90
23869;DHT22;12115;47.128;15.422;2023-01-28T15:59:41;1.20;99.90
23869;DHT22;12115;47.128;15.422;2023-01-28T16:04:40;1.20;99.90
23869;DHT22;12115;47.128;15.422;2023-01-28T16:07:07;1.10;99.90
23869;DHT22;12115;47.128;15.422;2023-01-28T16:09:34;1.20;99.90
23869;DHT22;12115;47.128;15.422;2023-01-28T16:12:03;1.20;99.90
23869;DHT22;12115;47.128;15.422;2023-01-28T16:17:07;1.20;99.90
23869;DHT22;12115;47.128;15.422;2023-01-28T16:19:39;1.20;99.90
23869;DHT22;12115;47.128;15.422;2023-01-28T16:22:07;1.20;99.90
23869;DHT22;12115;47.128;15.422;2023-01-28T16:24:35;1.20;99.90
23869;DHT22;12115;47.128;15.422;2023-01-28T16:27:03;1.20;99.90
23869;DHT22;12115;47.128;15.422;2023-01-28T16:29:31;1.20;99.90
23869;DHT22;12115;47.128;15.422;2023-01-28T16:31:59;1.20;99.90
23869;DHT22;12115;47.128;15.422;2023-01-28T16:34:26;1.10;99.90
23869;DHT22;12115;47.128;15.422;2023-01-28T16:36:56;1.00;99.90
23869;DHT22;12115;47.128;15.422;2023-01-28T16:39:23;1.00;99.90
23869;DHT22;12115;47.128;15.422;2023-01-28T16:41:51;1.00;99.90
23869;DHT22;12115;47.128;15.422;2023-01-28T16:44:19;1.00;99.90
23869;DHT22;12115;47.128;15.422;2023-01-28T16:46:46;1.00;99.90
23869;DHT22;12115;47.128;15.422;2023-01-28T16:49:13;1.10;99.90
23869;DHT22;12115;47.128;15.422;2023-01-28T16:51:40;1.10;99.90
23869;DHT22;12115;47.128;15.422;2023-01-28T16:54:12;1.00;99.90
23869;DHT22;12115;47.128;15.422;2023-01-28T16:56:42;1.00;99.90
23869;DHT22;12115;47.128;15.422;2023-01-28T16:59:12;0.90;99.90
23869;DHT22;12115;47.128;15.422;2023-01-28T17:01:42;0.90;99.90
23869;DHT22;12115;47.128;15.422;2023-01-28T17:04:09;0.90;99.90
23869;DHT22;12115;47.128;15.422;2023-01-28T17:06:40;0.90;99.90
23869;DHT22;12115;47.128;15.422;2023-01-28T17:09:09;0.90;99.90
23869;DHT22;12115;47.128;15.422;2023-01-28T17:11:36;0.90;99.90
23869;DHT22;12115;47.128;15.422;2023-01-28T17:14:05;0.90;99.90
23869;DHT22;12115;47.128;15.422;2023-01-28T17:16:34;1.00;99.90
23869;DHT22;12115;47.128;15.422;2023-01-28T17:19:03;0.90;99.90
23869;DHT22;12115;47.128;15.422;2023-01-28T17:21:30;0.90;99.90
23869;DHT22;12115;47.128;15.422;2023-01-28T17:23:58;0.90;99.90
23869;DHT22;12115;47.128;15.422;2023-01-28T17:26:25;0.90;99.90
23869;DHT22;12115;47.128;15.422;2023-01-28T17:28:55;0.90;99.90
23869;DHT22;12115;47.128;15.422;2023-01-28T17:31:22;0.80;99.90
23869;DHT22;12115;47.128;15.422;2023-01-28T17:33:51;0.80;99.90
23869;DHT22;12115;47.128;15.422;2023-01-28T17:36:19;0.80;99.90
23869;DHT22;12115;47.128;15.422;2023-01-28T17:38:46;0.80;99.90
23869;DHT22;12115;47.128;15.422;2023-01-28T17:41:15;0.80;99.90
23869;DHT22;12115;47.128;15.422;2023-01-28T17:43:49;0.80;99.90
23869;DHT22;12115;47.128;15.422;2023-01-28T17:46:17;0.80;99.90
23869;DHT22;12115;47.128;15.422;2023-01-28T17:48:47;0.80;99.90
23869;DHT22;12115;47.128;15.422;2023-01-28T17:51:15;0.70;99.90
23869;DHT22;12115;47.128;15.422;2023-01-28T17:53:48;0.80;99.90
23869;DHT22;12115;47.128;15.422;2023-01-28T17:56:20;0.80;99.90
23869;DHT22;12115;47.128;15.422;2023-01-28T17:58:47;0.80;99.90